Terminal Aerodrome Forecast
Issued by NWS

Home | Current Version | Previous Version | Text Only | Print | Product List | Glossary On
Versions: 1 2 3 4 5 6 7 8 9 10 11 12 13 14 15 16 17 18 19
000
FTUS43 KJKL 051140
TAFSME
TAF
KSME 051140Z 0512/0612 VRB03KT P6SM -SHRA SCT020 OVC120
      TEMPO 0512/0516 3SM BR
     FM051600 36005KT 5SM -SHRA BR VCTS BKN020CB OVC120
     FM060200 VRB03KT P6SM FEW040 BKN130
     FM060700 00000KT 2SM BR BKN130
     FM061000 00000KT 1/2SM FG BKN005 BKN130=

USA.gov is the U.S. government's official web portal to all federal, state and local government web resources and services.